Flight Track Log - Related Links

Times and Time Zones

All times are in EDT time to prevent confusion due to time zone crossing. See the CHQ3058 flight status page for this flight to view local times or setup timezone preferences in your user account.

Time Position Orientation Groundspeed Altitude Reporting Facility
EDT Latitude Longitude Course Direction KTS MPH feet Rate Location/Type
Wed 07:42:23 PM 35.1908 -80.9356 106° East 173 199 1,600  Level Atlanta Center
Wed 07:43:00 PM 35.1594 -80.9342 178° South 174 200 2,700 1,837 Climbing Atlanta Center
Wed 07:44:01 PM 35.1058 -80.8806 141° Southeast 268 308 4,600 2,066 Climbing Atlanta Center
Wed 07:45:00 PM 35.0927 -80.7063 83° East  Level FlightAware Approximate
Wed 07:45:02 PM 35.0975 -80.7919 97° East 286 329 6,900  Level Atlanta Center
Wed 07:46:00 PM 35.0989 -80.6288 106° East  Level FlightAware Approximate
Wed 07:46:03 PM 35.0842 -80.6908 99° East 291 335 7,900  Level Atlanta Center
Wed 07:47:00 PM 35.0809 -80.5537 106° East  Level FlightAware Approximate
Wed 07:47:03 PM 35.0544 -80.5983 111° Southeast 293 337 8,000  Level Atlanta Center
Wed 07:49:30 PM 34.9703 -80.3950 117° Southeast 280 322 10,600 870 Climbing Washington Center
Wed 07:50:30 PM 34.9364 -80.3069 115° Southeast 299 344 11,000 202 Climbing Washington Center
Wed 07:51:29 PM 34.8950 -80.1906 113° Southeast 327 376 11,000  Level Washington Center
Wed 07:52:29 PM 34.8631 -80.1000 113° Southeast 327 376 11,000  Level Washington Center
Wed 07:53:30 PM 34.8256 -79.9867 112° Southeast 321 369 11,000  Level Washington Center
Wed 07:54:31 PM 34.7931 -79.8989 114° Southeast 316 364 11,000  Level Washington Center
Wed 07:55:31 PM 34.7511 -79.7881 115° Southeast 321 369 11,000  Level Washington Center
Wed 07:56:29 PM 34.7089 -79.6822 116° Southeast 334 384 11,000 -50 Level Washington Center
Wed 07:57:30 PM 34.6706 -79.5819 115° Southeast 334 384 10,900 -590 Descending Washington Center
Wed 07:58:31 PM 34.6489 -79.4825 105° East 310 357 9,800 -1,240 Descending Washington Center
Wed 07:59:31 PM 34.6664 -79.3922 77° East 277 319 8,400 -1,364 Descending Washington Center
Wed 08:00:43 PM 34.6858 -79.3047 75° East 267 307 6,800 -1,333 Descending Washington Center

Login

Don't have an account? Register now (free) for customized features, flight alerts, and more!